sensor_id;sensor_type;location;lat;lon;timestamp;P1;durP1;ratioP1;P2;durP2;ratioP2
37877;SDS011;23715;53.652;8.516;2022-11-20T00:02:53;18.30;;;17.37;;
37877;SDS011;23715;53.652;8.516;2022-11-20T00:07:53;19.02;;;17.92;;
37877;SDS011;23715;53.652;8.516;2022-11-20T00:12:54;18.98;;;17.70;;
37877;SDS011;23715;53.652;8.516;2022-11-20T00:17:54;19.60;;;18.32;;
37877;SDS011;23715;53.652;8.516;2022-11-20T00:22:54;19.70;;;18.42;;
37877;SDS011;23715;53.652;8.516;2022-11-20T00:27:55;19.98;;;18.82;;
37877;SDS011;23715;53.652;8.516;2022-11-20T00:32:56;20.57;;;19.23;;
37877;SDS011;23715;53.652;8.516;2022-11-20T00:37:56;21.48;;;20.17;;
37877;SDS011;23715;53.652;8.516;2022-11-20T00:42:57;19.80;;;18.62;;
37877;SDS011;23715;53.652;8.516;2022-11-20T00:47:57;22.27;;;20.95;;
37877;SDS011;23715;53.652;8.516;2022-11-20T00:52:57;22.48;;;21.05;;
37877;SDS011;23715;53.652;8.516;2022-11-20T00:57:57;22.42;;;21.12;;
37877;SDS011;23715;53.652;8.516;2022-11-20T01:02:58;23.52;;;22.13;;
37877;SDS011;23715;53.652;8.516;2022-11-20T01:07:58;22.73;;;21.23;;
37877;SDS011;23715;53.652;8.516;2022-11-20T01:12:58;22.80;;;21.40;;
37877;SDS011;23715;53.652;8.516;2022-11-20T01:18:17;22.35;;;21.05;;
37877;SDS011;23715;53.652;8.516;2022-11-20T01:23:17;24.00;;;22.43;;
37877;SDS011;23715;53.652;8.516;2022-11-20T01:33:17;23.75;;;22.32;;
37877;SDS011;23715;53.652;8.516;2022-11-20T01:43:19;26.03;;;24.37;;
37877;SDS011;23715;53.652;8.516;2022-11-20T01:48:20;26.12;;;24.43;;
37877;SDS011;23715;53.652;8.516;2022-11-20T01:53:24;25.62;;;23.92;;
37877;SDS011;23715;53.652;8.516;2022-11-20T01:58:28;26.35;;;24.70;;
37877;SDS011;23715;53.652;8.516;2022-11-20T02:03:29;25.95;;;24.20;;
37877;SDS011;23715;53.652;8.516;2022-11-20T02:08:31;26.65;;;24.95;;
37877;SDS011;23715;53.652;8.516;2022-11-20T02:13:33;28.67;;;26.77;;
37877;SDS011;23715;53.652;8.516;2022-11-20T02:18:44;25.65;;;23.65;;
37877;SDS011;23715;53.652;8.516;2022-11-20T02:29:05;26.87;;;25.07;;
37877;SDS011;23715;53.652;8.516;2022-11-20T02:34:06;26.40;;;24.80;;
37877;SDS011;23715;53.652;8.516;2022-11-20T02:39:06;24.85;;;23.25;;
37877;SDS011;23715;53.652;8.516;2022-11-20T02:44:09;24.63;;;23.10;;
37877;SDS011;23715;53.652;8.516;2022-11-20T02:49:09;25.17;;;23.77;;
37877;SDS011;23715;53.652;8.516;2022-11-20T02:54:10;25.60;;;24.10;;
37877;SDS011;23715;53.652;8.516;2022-11-20T02:59:10;25.30;;;23.95;;
37877;SDS011;23715;53.652;8.516;2022-11-20T03:04:10;26.23;;;24.52;;
37877;SDS011;23715;53.652;8.516;2022-11-20T03:14:11;26.15;;;24.65;;
37877;SDS011;23715;53.652;8.516;2022-11-20T03:19:11;27.30;;;25.60;;
37877;SDS011;23715;53.652;8.516;2022-11-20T03:24:12;26.42;;;24.77;;
37877;SDS011;23715;53.652;8.516;2022-11-20T03:29:13;25.52;;;24.02;;
37877;SDS011;23715;53.652;8.516;2022-11-20T03:34:13;24.72;;;23.20;;
37877;SDS011;23715;53.652;8.516;2022-11-20T03:39:14;26.68;;;24.87;;
37877;SDS011;23715;53.652;8.516;2022-11-20T03:44:14;25.45;;;23.85;;
37877;SDS011;23715;53.652;8.516;2022-11-20T03:49:14;26.55;;;24.95;;
37877;SDS011;23715;53.652;8.516;2022-11-20T03:54:15;26.15;;;24.75;;
37877;SDS011;23715;53.652;8.516;2022-11-20T03:59:15;27.87;;;26.20;;
37877;SDS011;23715;53.652;8.516;2022-11-20T04:04:16;25.08;;;23.60;;
37877;SDS011;23715;53.652;8.516;2022-11-20T04:09:16;26.20;;;24.63;;
37877;SDS011;23715;53.652;8.516;2022-11-20T04:14:17;25.48;;;23.85;;
37877;SDS011;23715;53.652;8.516;2022-11-20T04:19:17;26.95;;;25.30;;
37877;SDS011;23715;53.652;8.516;2022-11-20T04:24:18;27.45;;;25.88;;
37877;SDS011;23715;53.652;8.516;2022-11-20T04:29:18;28.42;;;26.75;;
37877;SDS011;23715;53.652;8.516;2022-11-20T04:34:18;28.17;;;26.55;;
37877;SDS011;23715;53.652;8.516;2022-11-20T04:39:19;28.27;;;26.60;;
37877;SDS011;23715;53.652;8.516;2022-11-20T04:44:19;27.20;;;25.60;;
37877;SDS011;23715;53.652;8.516;2022-11-20T04:49:20;27.10;;;25.50;;
37877;SDS011;23715;53.652;8.516;2022-11-20T04:54:20;29.35;;;27.13;;
37877;SDS011;23715;53.652;8.516;2022-11-20T04:59:21;30.82;;;28.83;;
37877;SDS011;23715;53.652;8.516;2022-11-20T05:04:21;29.92;;;27.90;;
37877;SDS011;23715;53.652;8.516;2022-11-20T05:09:22;28.02;;;26.12;;
37877;SDS011;23715;53.652;8.516;2022-11-20T05:14:22;29.23;;;27.32;;
37877;SDS011;23715;53.652;8.516;2022-11-20T05:19:23;29.60;;;27.70;;
37877;SDS011;23715;53.652;8.516;2022-11-20T05:29:23;29.20;;;27.35;;
37877;SDS011;23715;53.652;8.516;2022-11-20T05:39:22;29.00;;;27.20;;
37877;SDS011;23715;53.652;8.516;2022-11-20T05:44:23;28.35;;;26.65;;
37877;SDS011;23715;53.652;8.516;2022-11-20T05:49:23;30.88;;;28.83;;
37877;SDS011;23715;53.652;8.516;2022-11-20T05:54:24;31.55;;;29.72;;
37877;SDS011;23715;53.652;8.516;2022-11-20T05:59:24;29.37;;;27.58;;
37877;SDS011;23715;53.652;8.516;2022-11-20T06:04:25;30.48;;;28.77;;
37877;SDS011;23715;53.652;8.516;2022-11-20T06:09:25;28.85;;;27.05;;
37877;SDS011;23715;53.652;8.516;2022-11-20T06:19:25;30.17;;;28.55;;
37877;SDS011;23715;53.652;8.516;2022-11-20T06:24:27;29.00;;;27.10;;
37877;SDS011;23715;53.652;8.516;2022-11-20T06:29:28;29.63;;;27.93;;
37877;SDS011;23715;53.652;8.516;2022-11-20T06:34:29;28.25;;;26.75;;
37877;SDS011;23715;53.652;8.516;2022-11-20T06:39:30;27.50;;;25.80;;
37877;SDS011;23715;53.652;8.516;2022-11-20T06:44:31;28.15;;;26.55;;
37877;SDS011;23715;53.652;8.516;2022-11-20T06:49:32;29.98;;;28.27;;
37877;SDS011;23715;53.652;8.516;2022-11-20T06:54:32;30.23;;;28.35;;
37877;SDS011;23715;53.652;8.516;2022-11-20T06:59:33;34.73;;;32.42;;
37877;SDS011;23715;53.652;8.516;2022-11-20T07:04:33;38.67;;;35.75;;
37877;SDS011;23715;53.652;8.516;2022-11-20T07:09:33;32.58;;;30.52;;
37877;SDS011;23715;53.652;8.516;2022-11-20T07:14:34;40.50;;;37.30;;
37877;SDS011;23715;53.652;8.516;2022-11-20T07:19:36;36.45;;;33.75;;
37877;SDS011;23715;53.652;8.516;2022-11-20T07:24:36;33.95;;;31.77;;
37877;SDS011;23715;53.652;8.516;2022-11-20T07:34:36;35.78;;;33.48;;
37877;SDS011;23715;53.652;8.516;2022-11-20T07:39:36;36.93;;;34.58;;
37877;SDS011;23715;53.652;8.516;2022-11-20T07:44:37;34.18;;;32.08;;
37877;SDS011;23715;53.652;8.516;2022-11-20T07:49:38;35.10;;;32.65;;
37877;SDS011;23715;53.652;8.516;2022-11-20T07:54:38;34.35;;;32.28;;
37877;SDS011;23715;53.652;8.516;2022-11-20T07:59:39;34.43;;;32.33;;
37877;SDS011;23715;53.652;8.516;2022-11-20T08:04:39;36.45;;;34.13;;
37877;SDS011;23715;53.652;8.516;2022-11-20T08:14:39;32.83;;;30.92;;
37877;SDS011;23715;53.652;8.516;2022-11-20T08:19:39;35.15;;;33.20;;
37877;SDS011;23715;53.652;8.516;2022-11-20T08:29:40;31.80;;;30.00;;
37877;SDS011;23715;53.652;8.516;2022-11-20T08:34:40;32.45;;;30.75;;
37877;SDS011;23715;53.652;8.516;2022-11-20T08:39:41;31.17;;;29.48;;
37877;SDS011;23715;53.652;8.516;2022-11-20T08:44:41;34.78;;;32.48;;
37877;SDS011;23715;53.652;8.516;2022-11-20T08:49:41;32.83;;;30.80;;
37877;SDS011;23715;53.652;8.516;2022-11-20T08:54:42;32.40;;;30.68;;
37877;SDS011;23715;53.652;8.516;2022-11-20T08:59:42;33.00;;;31.25;;
37877;SDS011;23715;53.652;8.516;2022-11-20T09:04:42;33.83;;;31.82;;
37877;SDS011;23715;53.652;8.516;2022-11-20T09:09:43;31.33;;;29.52;;
37877;SDS011;23715;53.652;8.516;2022-11-20T09:14:43;32.78;;;30.95;;
37877;SDS011;23715;53.652;8.516;2022-11-20T09:19:44;31.30;;;29.55;;
37877;SDS011;23715;53.652;8.516;2022-11-20T09:24:44;30.75;;;28.95;;
37877;SDS011;23715;53.652;8.516;2022-11-20T09:29:44;25.72;;;24.25;;
37877;SDS011;23715;53.652;8.516;2022-11-20T09:39:44;28.65;;;27.05;;
37877;SDS011;23715;53.652;8.516;2022-11-20T09:44:49;28.38;;;26.87;;
37877;SDS011;23715;53.652;8.516;2022-11-20T09:50:11;29.10;;;27.15;;
37877;SDS011;23715;53.652;8.516;2022-11-20T09:55:15;27.95;;;26.48;;
37877;SDS011;23715;53.652;8.516;2022-11-20T10:05:24;25.27;;;23.80;;
37877;SDS011;23715;53.652;8.516;2022-11-20T10:10:46;26.80;;;25.20;;
37877;SDS011;23715;53.652;8.516;2022-11-20T10:15:53;26.62;;;25.12;;
37877;SDS011;23715;53.652;8.516;2022-11-20T10:31:31;23.47;;;22.05;;
37877;SDS011;23715;53.652;8.516;2022-11-20T10:36:44;22.58;;;21.27;;
37877;SDS011;23715;53.652;8.516;2022-11-20T10:41:45;26.12;;;24.63;;
37877;SDS011;23715;53.652;8.516;2022-11-20T10:46:48;28.57;;;26.90;;
37877;SDS011;23715;53.652;8.516;2022-11-20T10:52:34;28.00;;;26.30;;
37877;SDS011;23715;53.652;8.516;2022-11-20T10:57:20;24.90;;;23.57;;
37877;SDS011;23715;53.652;8.516;2022-11-20T11:02:18;25.17;;;23.77;;
37877;SDS011;23715;53.652;8.516;2022-11-20T11:07:35;26.30;;;24.80;;
37877;SDS011;23715;53.652;8.516;2022-11-20T11:12:38;23.32;;;22.02;;
37877;SDS011;23715;53.652;8.516;2022-11-20T11:17:47;26.37;;;24.45;;
37877;SDS011;23715;53.652;8.516;2022-11-20T11:22:49;24.32;;;22.93;;
37877;SDS011;23715;53.652;8.516;2022-11-20T11:27:51;22.10;;;20.70;;
37877;SDS011;23715;53.652;8.516;2022-11-20T11:33:09;21.65;;;20.43;;
37877;SDS011;23715;53.652;8.516;2022-11-20T11:38:10;22.95;;;21.65;;
37877;SDS011;23715;53.652;8.516;2022-11-20T11:43:19;23.00;;;21.70;;
37877;SDS011;23715;53.652;8.516;2022-11-20T11:48:40;21.27;;;19.98;;
37877;SDS011;23715;53.652;8.516;2022-11-20T11:53:40;21.60;;;20.17;;
37877;SDS011;23715;53.652;8.516;2022-11-20T12:09:10;19.80;;;18.70;;
37877;SDS011;23715;53.652;8.516;2022-11-20T12:14:15;24.43;;;22.20;;
37877;SDS011;23715;53.652;8.516;2022-11-20T12:19:33;17.80;;;16.60;;
37877;SDS011;23715;53.652;8.516;2022-11-20T12:45:42;23.00;;;21.30;;
37877;SDS011;23715;53.652;8.516;2022-11-20T13:01:25;18.20;;;17.07;;
37877;SDS011;23715;53.652;8.516;2022-11-20T13:06:39;16.95;;;16.00;;
37877;SDS011;23715;53.652;8.516;2022-11-20T13:11:45;16.57;;;15.68;;
37877;SDS011;23715;53.652;8.516;2022-11-20T13:17:00;15.83;;;14.93;;
37877;SDS011;23715;53.652;8.516;2022-11-20T13:22:07;16.42;;;15.43;;
37877;SDS011;23715;53.652;8.516;2022-11-20T13:42:35;15.13;;;13.80;;
37877;SDS011;23715;53.652;8.516;2022-11-20T13:47:36;16.62;;;15.53;;
37877;SDS011;23715;53.652;8.516;2022-11-20T14:03:29;23.12;;;21.73;;
37877;SDS011;23715;53.652;8.516;2022-11-20T14:08:33;22.50;;;21.10;;
37877;SDS011;23715;53.652;8.516;2022-11-20T14:13:34;22.37;;;20.88;;
37877;SDS011;23715;53.652;8.516;2022-11-20T14:18:35;22.05;;;20.62;;
37877;SDS011;23715;53.652;8.516;2022-11-20T14:23:35;20.00;;;18.80;;
37877;SDS011;23715;53.652;8.516;2022-11-20T14:28:37;20.00;;;18.75;;
37877;SDS011;23715;53.652;8.516;2022-11-20T14:33:39;18.82;;;17.62;;
37877;SDS011;23715;53.652;8.516;2022-11-20T14:38:39;19.92;;;18.73;;
37877;SDS011;23715;53.652;8.516;2022-11-20T14:43:44;21.77;;;20.30;;
37877;SDS011;23715;53.652;8.516;2022-11-20T14:48:48;19.62;;;18.28;;
37877;SDS011;23715;53.652;8.516;2022-11-20T14:53:51;26.55;;;24.20;;
37877;SDS011;23715;53.652;8.516;2022-11-20T14:58:55;25.62;;;23.27;;
37877;SDS011;23715;53.652;8.516;2022-11-20T15:03:59;23.45;;;21.73;;
37877;SDS011;23715;53.652;8.516;2022-11-20T15:09:04;25.43;;;23.40;;
37877;SDS011;23715;53.652;8.516;2022-11-20T15:14:06;24.43;;;22.52;;
37877;SDS011;23715;53.652;8.516;2022-11-20T15:19:16;34.08;;;30.62;;
37877;SDS011;23715;53.652;8.516;2022-11-20T15:24:18;37.40;;;33.67;;
37877;SDS011;23715;53.652;8.516;2022-11-20T15:29:19;32.83;;;29.92;;
37877;SDS011;23715;53.652;8.516;2022-11-20T15:34:21;24.12;;;22.73;;
37877;SDS011;23715;53.652;8.516;2022-11-20T15:39:22;25.95;;;23.85;;
37877;SDS011;23715;53.652;8.516;2022-11-20T15:44:22;20.90;;;19.60;;
37877;SDS011;23715;53.652;8.516;2022-11-20T15:49:22;22.62;;;21.27;;
37877;SDS011;23715;53.652;8.516;2022-11-20T15:54:23;22.77;;;21.37;;
37877;SDS011;23715;53.652;8.516;2022-11-20T15:59:24;28.00;;;26.40;;
37877;SDS011;23715;53.652;8.516;2022-11-20T16:04:24;28.10;;;26.48;;
37877;SDS011;23715;53.652;8.516;2022-11-20T16:09:24;26.07;;;24.57;;
37877;SDS011;23715;53.652;8.516;2022-11-20T16:14:28;30.50;;;28.52;;
37877;SDS011;23715;53.652;8.516;2022-11-20T16:19:46;33.42;;;31.02;;
37877;SDS011;23715;53.652;8.516;2022-11-20T16:24:46;28.30;;;26.33;;
37877;SDS011;23715;53.652;8.516;2022-11-20T16:29:47;24.02;;;22.52;;
37877;SDS011;23715;53.652;8.516;2022-11-20T16:34:47;26.37;;;24.35;;
37877;SDS011;23715;53.652;8.516;2022-11-20T16:39:48;27.73;;;25.72;;
37877;SDS011;23715;53.652;8.516;2022-11-20T16:44:49;28.38;;;26.37;;
37877;SDS011;23715;53.652;8.516;2022-11-20T16:49:49;27.83;;;25.73;;
37877;SDS011;23715;53.652;8.516;2022-11-20T16:54:50;28.60;;;26.45;;
37877;SDS011;23715;53.652;8.516;2022-11-20T16:59:50;30.90;;;28.15;;
37877;SDS011;23715;53.652;8.516;2022-11-20T17:04:53;31.17;;;28.77;;
37877;SDS011;23715;53.652;8.516;2022-11-20T17:09:54;29.65;;;27.37;;
37877;SDS011;23715;53.652;8.516;2022-11-20T17:14:55;33.10;;;30.40;;
37877;SDS011;23715;53.652;8.516;2022-11-20T17:24:55;117.93;;;70.43;;
37877;SDS011;23715;53.652;8.516;2022-11-20T17:29:55;119.87;;;69.72;;
37877;SDS011;23715;53.652;8.516;2022-11-20T17:34:56;44.75;;;40.55;;
37877;SDS011;23715;53.652;8.516;2022-11-20T17:39:57;40.10;;;36.83;;
37877;SDS011;23715;53.652;8.516;2022-11-20T17:44:57;42.13;;;38.05;;
37877;SDS011;23715;53.652;8.516;2022-11-20T17:49:59;42.30;;;38.23;;
37877;SDS011;23715;53.652;8.516;2022-11-20T17:54:59;41.83;;;38.10;;
37877;SDS011;23715;53.652;8.516;2022-11-20T18:00:00;44.15;;;40.00;;
37877;SDS011;23715;53.652;8.516;2022-11-20T18:05:02;41.73;;;37.85;;
37877;SDS011;23715;53.652;8.516;2022-11-20T18:10:03;39.25;;;35.55;;
37877;SDS011;23715;53.652;8.516;2022-11-20T18:15:04;40.00;;;36.42;;
37877;SDS011;23715;53.652;8.516;2022-11-20T18:20:05;38.78;;;35.08;;
37877;SDS011;23715;53.652;8.516;2022-11-20T18:25:07;37.55;;;33.83;;
37877;SDS011;23715;53.652;8.516;2022-11-20T18:30:08;38.50;;;35.00;;
37877;SDS011;23715;53.652;8.516;2022-11-20T18:35:09;37.80;;;34.30;;
37877;SDS011;23715;53.652;8.516;2022-11-20T18:40:10;40.03;;;36.33;;
37877;SDS011;23715;53.652;8.516;2022-11-20T18:45:11;39.50;;;35.65;;
37877;SDS011;23715;53.652;8.516;2022-11-20T18:50:12;37.85;;;34.38;;
37877;SDS011;23715;53.652;8.516;2022-11-20T18:55:13;37.65;;;34.00;;
37877;SDS011;23715;53.652;8.516;2022-11-20T19:00:14;37.95;;;34.55;;
37877;SDS011;23715;53.652;8.516;2022-11-20T19:05:17;39.03;;;35.35;;
37877;SDS011;23715;53.652;8.516;2022-11-20T19:10:18;38.02;;;34.48;;
37877;SDS011;23715;53.652;8.516;2022-11-20T19:15:20;41.42;;;37.23;;
37877;SDS011;23715;53.652;8.516;2022-11-20T19:20:21;39.13;;;35.28;;
37877;SDS011;23715;53.652;8.516;2022-11-20T19:25:23;58.70;;;45.85;;
37877;SDS011;23715;53.652;8.516;2022-11-20T19:30:24;46.08;;;41.65;;
37877;SDS011;23715;53.652;8.516;2022-11-20T19:35:25;39.53;;;35.60;;
37877;SDS011;23715;53.652;8.516;2022-11-20T19:40:27;35.98;;;32.53;;
37877;SDS011;23715;53.652;8.516;2022-11-20T19:45:27;35.43;;;32.28;;
37877;SDS011;23715;53.652;8.516;2022-11-20T19:50:30;37.42;;;34.10;;
37877;SDS011;23715;53.652;8.516;2022-11-20T19:55:31;38.00;;;34.40;;
37877;SDS011;23715;53.652;8.516;2022-11-20T20:00:33;38.42;;;34.78;;
37877;SDS011;23715;53.652;8.516;2022-11-20T20:05:34;35.40;;;32.17;;
37877;SDS011;23715;53.652;8.516;2022-11-20T20:10:35;36.08;;;32.48;;
37877;SDS011;23715;53.652;8.516;2022-11-20T20:15:38;33.85;;;30.80;;
37877;SDS011;23715;53.652;8.516;2022-11-20T20:20:39;34.10;;;30.97;;
37877;SDS011;23715;53.652;8.516;2022-11-20T20:25:42;33.40;;;30.50;;
37877;SDS011;23715;53.652;8.516;2022-11-20T20:30:46;32.30;;;29.42;;
37877;SDS011;23715;53.652;8.516;2022-11-20T20:35:47;49.33;;;42.10;;
37877;SDS011;23715;53.652;8.516;2022-11-20T20:40:49;34.33;;;31.12;;
37877;SDS011;23715;53.652;8.516;2022-11-20T20:45:50;36.35;;;32.78;;
37877;SDS011;23715;53.652;8.516;2022-11-20T20:50:54;30.72;;;27.82;;
37877;SDS011;23715;53.652;8.516;2022-11-20T20:55:59;31.20;;;28.25;;
37877;SDS011;23715;53.652;8.516;2022-11-20T21:01:01;31.82;;;28.92;;
37877;SDS011;23715;53.652;8.516;2022-11-20T21:06:07;30.35;;;27.62;;
37877;SDS011;23715;53.652;8.516;2022-11-20T21:11:10;29.40;;;26.62;;
37877;SDS011;23715;53.652;8.516;2022-11-20T21:16:13;31.77;;;28.77;;
37877;SDS011;23715;53.652;8.516;2022-11-20T21:21:16;32.15;;;28.95;;
37877;SDS011;23715;53.652;8.516;2022-11-20T21:26:35;31.15;;;28.42;;
37877;SDS011;23715;53.652;8.516;2022-11-20T21:31:36;87.08;;;51.58;;
37877;SDS011;23715;53.652;8.516;2022-11-20T21:36:37;55.30;;;40.43;;
37877;SDS011;23715;53.652;8.516;2022-11-20T21:41:39;63.55;;;43.38;;
37877;SDS011;23715;53.652;8.516;2022-11-20T21:46:42;35.20;;;31.50;;
37877;SDS011;23715;53.652;8.516;2022-11-20T21:51:44;35.05;;;31.55;;
37877;SDS011;23715;53.652;8.516;2022-11-20T21:56:45;34.70;;;30.97;;
37877;SDS011;23715;53.652;8.516;2022-11-20T22:01:47;32.53;;;29.40;;
37877;SDS011;23715;53.652;8.516;2022-11-20T22:06:48;31.82;;;28.70;;
37877;SDS011;23715;53.652;8.516;2022-11-20T22:11:49;34.35;;;30.85;;
37877;SDS011;23715;53.652;8.516;2022-11-20T22:16:51;30.97;;;27.98;;
37877;SDS011;23715;53.652;8.516;2022-11-20T22:21:52;31.85;;;28.67;;
37877;SDS011;23715;53.652;8.516;2022-11-20T22:26:55;32.10;;;28.98;;
37877;SDS011;23715;53.652;8.516;2022-11-20T22:31:55;32.48;;;28.98;;
37877;SDS011;23715;53.652;8.516;2022-11-20T22:36:56;30.32;;;27.35;;
37877;SDS011;23715;53.652;8.516;2022-11-20T22:41:56;33.28;;;29.98;;
37877;SDS011;23715;53.652;8.516;2022-11-20T22:46:57;35.83;;;29.30;;
37877;SDS011;23715;53.652;8.516;2022-11-20T22:51:57;32.85;;;29.45;;
37877;SDS011;23715;53.652;8.516;2022-11-20T22:56:58;33.42;;;30.02;;
37877;SDS011;23715;53.652;8.516;2022-11-20T23:01:58;32.67;;;29.42;;
37877;SDS011;23715;53.652;8.516;2022-11-20T23:06:58;34.00;;;30.48;;
37877;SDS011;23715;53.652;8.516;2022-11-20T23:11:59;33.85;;;30.12;;
37877;SDS011;23715;53.652;8.516;2022-11-20T23:16:59;34.03;;;30.52;;
37877;SDS011;23715;53.652;8.516;2022-11-20T23:21:59;35.08;;;31.30;;
37877;SDS011;23715;53.652;8.516;2022-11-20T23:27:00;34.10;;;30.43;;
37877;SDS011;23715;53.652;8.516;2022-11-20T23:32:00;37.03;;;32.03;;
37877;SDS011;23715;53.652;8.516;2022-11-20T23:37:00;34.20;;;30.60;;
37877;SDS011;23715;53.652;8.516;2022-11-20T23:42:00;32.80;;;29.30;;
37877;SDS011;23715;53.652;8.516;2022-11-20T23:47:01;31.55;;;28.17;;
37877;SDS011;23715;53.652;8.516;2022-11-20T23:52:01;32.48;;;29.02;;
